Petersburg, AK

8:53 AM AKST on February 07, 2016 (GMT -0900)
Johnson Petersburg | | Change Station
CLOSE
Current Station
Airport
Location: Petersburg,
Elevation: 0 ft
Nearby Weather Stations

Elev 0 ft 56.82 °N, 132.97 °W | Updated 17 minutes ago

Overcast
Overcast
39 °F
Feels Like 31 °F
N
15
Wind Variable Wind from ESE
Gusts 20 mph

Today
High -- | Low -- °F
--% Chance of Precip.
Yesterday
High -- | Low -- °F
Precip. -- in
Pressure 30.03 in
Visibility 5.0 miles
Clouds Overcast 2200 ft
Windchill 31 °F
Dew Point 32 °F
Humidity 75%
Rainfall 0.55 in
Snow Depth Not available.
7:39 AM 4:35 PM
Waning Crescent, 1% visible
METAR PAPG 071736Z 11013G17KT 5SM OVC022 04/00 A3003 RMK AO1 -RA P0001
Pressure 30.03 in
Visibility 5.0 miles
Clouds Overcast 2200 ft
Windchill 31 °F
Dew Point 32 °F
Humidity 75%
Rainfall 0.55 in
Snow Depth Not available.
7:39 AM 4:35 PM
Waning Crescent, 1% visible
METAR PAPG 071736Z 11013G17KT 5SM OVC022 04/00 A3003 RMK AO1 -RA P0001

10-Day Weather Forecast

Almanac

Astronomy

Feb. 07, 2016 Rise Set
Actual Time
Civil Twilight
Nautical Twilight
Astronomical Twilight
Moon
Length of Visible Light
Length of Day
Tomorrow will be .
, % of the Moon is Illuminated

Today's Extremes

State Highs State Lows

Community

WunderPhotos

Upload Photos

1,891,248 photos uploaded!

WunderBlog® & News

Nearby

Air Quality

  Air Quality AQ Index Pollutant
Not available.

Snow Depth

Station Depth Elevation

Earthquake Activity

City Distance Mag. Time & Date
Minimum magnitude displayed is 2.5.

Coastal Water Temperatures

Place Temperature

Stations

Nearby Weather Stations

Station Location Temp. Windchill Dew Point Humidity Wind Precip. Elev Updated Type
                   

Watches & Warnings

There are currently no watches in effect.